createdAt,value
2023-03-13T00:00:07.910Z,81.417
2023-03-13T00:01:07.460Z,81.541
2023-03-13T00:02:08.331Z,81.327
2023-03-13T00:03:07.871Z,81.554
2023-03-13T00:04:07.471Z,81.827
2023-03-13T00:05:08.127Z,81.379
2023-03-13T00:06:07.869Z,81.598
2023-03-13T00:07:07.439Z,81.800
2023-03-13T00:08:08.028Z,81.806
2023-03-13T00:09:07.785Z,81.686
2023-03-13T00:10:08.273Z,81.551
2023-03-13T00:11:09.223Z,81.757
2023-03-13T00:12:08.129Z,81.871
2023-03-13T00:13:07.575Z,81.734
2023-03-13T00:14:08.040Z,81.821
2023-03-13T00:15:07.625Z,81.831
2023-03-13T00:16:08.254Z,81.642
2023-03-13T00:17:08.277Z,81.594
2023-03-13T00:18:07.841Z,81.629
2023-03-13T00:19:07.408Z,81.844
2023-03-13T00:20:07.880Z,81.806
2023-03-13T00:21:07.449Z,81.882
2023-03-13T00:22:08.169Z,81.989
2023-03-13T00:23:07.763Z,81.997
2023-03-13T00:24:07.411Z,81.858
2023-03-13T00:25:07.988Z,81.953
2023-03-13T00:26:07.598Z,81.715
2023-03-13T00:27:08.184Z,81.602
2023-03-13T00:28:07.717Z,81.486
2023-03-13T00:29:08.229Z,81.369
2023-03-13T00:30:07.826Z,81.369
2023-03-13T00:31:07.602Z,81.297
2023-03-13T00:32:08.110Z,81.390
2023-03-13T00:33:07.940Z,81.493
2023-03-13T00:34:07.648Z,81.493
2023-03-13T00:35:08.221Z,81.535
2023-03-13T00:36:08.048Z,81.253
2023-03-13T00:37:07.663Z,81.381
2023-03-13T00:38:08.185Z,81.304
2023-03-13T00:39:07.626Z,81.282
2023-03-13T00:40:08.161Z,81.106
2023-03-13T00:41:07.839Z,81.085
2023-03-13T00:42:07.373Z,81.192
2023-03-13T00:43:07.855Z,81.072
2023-03-13T00:44:07.401Z,81.076
2023-03-13T00:45:07.992Z,81.104
2023-03-13T00:46:07.661Z,81.358
2023-03-13T00:47:07.381Z,81.350
2023-03-13T00:48:07.942Z,81.251
2023-03-13T00:49:07.460Z,81.148
2023-03-13T00:50:07.961Z,81.087
2023-03-13T00:51:07.513Z,81.112
2023-03-13T00:52:08.076Z,81.165
2023-03-13T00:53:07.596Z,81.169
2023-03-13T00:54:08.117Z,81.194
2023-03-13T00:55:07.631Z,81.028
2023-03-13T00:56:08.196Z,81.221
2023-03-13T00:57:07.944Z,81.171
2023-03-13T00:58:07.608Z,81.261
2023-03-13T00:59:08.180Z,81.291
2023-03-13T01:00:07.735Z,81.110
2023-03-13T01:01:07.384Z,80.946
2023-03-13T01:02:08.091Z,80.906
2023-03-13T01:03:08.221Z,80.849
2023-03-13T01:04:07.373Z,81.072
2023-03-13T01:05:07.950Z,80.923
2023-03-13T01:06:07.802Z,80.967
2023-03-13T01:07:07.381Z,81.001
2023-03-13T01:08:07.939Z,81.078
2023-03-13T01:09:07.473Z,80.919
2023-03-13T01:10:08.025Z,80.921
2023-03-13T01:11:07.658Z,80.818
2023-03-13T01:12:08.216Z,80.816
2023-03-13T01:13:07.714Z,80.603
2023-03-13T01:14:07.414Z,80.833
2023-03-13T01:15:07.934Z,80.805
2023-03-13T01:16:07.627Z,80.776
2023-03-13T01:17:08.185Z,80.810
2023-03-13T01:18:07.686Z,81.001
2023-03-13T01:19:08.241Z,80.702
2023-03-13T01:20:08.037Z,80.803
2023-03-13T01:21:07.644Z,80.770
2023-03-13T01:22:08.105Z,80.889
2023-03-13T01:23:07.617Z,80.843
2023-03-13T01:24:08.151Z,80.761
2023-03-13T01:25:07.643Z,80.999
2023-03-13T01:26:08.200Z,80.816
2023-03-13T01:27:07.815Z,80.805
2023-03-13T01:28:08.307Z,80.873
2023-03-13T01:29:07.926Z,80.870
2023-03-13T01:30:07.560Z,80.662
2023-03-13T01:31:08.172Z,80.875
2023-03-13T01:32:07.974Z,80.894
2023-03-13T01:33:07.713Z,80.885
2023-03-13T01:34:08.245Z,80.725
2023-03-13T01:35:07.904Z,80.646
2023-03-13T01:36:07.775Z,80.650
2023-03-13T01:37:08.212Z,80.767
2023-03-13T01:38:07.715Z,80.887
2023-03-13T01:39:08.209Z,81.001
2023-03-13T01:40:07.722Z,81.078
2023-03-13T01:41:07.347Z,81.095
2023-03-13T01:42:07.836Z,81.064
2023-03-13T01:43:11.939Z,81.112
2023-03-13T01:44:07.757Z,80.997
2023-03-13T01:45:08.308Z,81.030
2023-03-13T01:46:07.939Z,80.927
2023-03-13T01:47:07.819Z,80.908
2023-03-13T01:48:07.813Z,80.976
2023-03-13T01:49:07.415Z,81.057
2023-03-13T01:50:08.137Z,81.154
2023-03-13T01:51:07.633Z,81.015
2023-03-13T01:52:08.078Z,80.900
2023-03-13T01:53:07.670Z,80.967
2023-03-13T01:54:08.153Z,80.965
2023-03-13T01:55:07.722Z,80.908
2023-03-13T01:56:08.376Z,80.763
2023-03-13T01:57:07.904Z,81.093
2023-03-13T01:58:07.485Z,81.034
2023-03-13T01:59:08.018Z,81.114
2023-03-13T02:00:07.457Z,81.194
2023-03-13T02:01:08.065Z,81.083
2023-03-13T02:02:07.883Z,81.297
2023-03-13T02:03:08.137Z,81.274
2023-03-13T02:04:07.733Z,80.927
2023-03-13T02:05:08.344Z,80.860
2023-03-13T02:06:07.966Z,80.976
2023-03-13T02:07:07.696Z,80.980
2023-03-13T02:08:08.171Z,81.078
2023-03-13T02:09:07.667Z,80.866
2023-03-13T02:10:08.159Z,81.194
2023-03-13T02:11:07.820Z,81.179
2023-03-13T02:12:07.344Z,80.902
2023-03-13T02:13:08.096Z,80.784
2023-03-13T02:14:07.666Z,80.936
2023-03-13T02:15:08.339Z,80.910
2023-03-13T02:16:08.034Z,80.757
2023-03-13T02:17:07.883Z,80.788
2023-03-13T02:18:07.533Z,80.795
2023-03-13T02:19:07.961Z,80.736
2023-03-13T02:20:07.455Z,80.814
2023-03-13T02:21:08.125Z,80.814
2023-03-13T02:22:07.789Z,80.700
2023-03-13T02:23:08.341Z,80.757
2023-03-13T02:24:07.853Z,80.637
2023-03-13T02:25:07.480Z,80.440
2023-03-13T02:26:07.437Z,80.345
2023-03-13T02:27:07.985Z,80.295
2023-03-13T02:28:07.566Z,80.347
2023-03-13T02:29:08.057Z,80.433
2023-03-13T02:30:07.583Z,80.351
2023-03-13T02:31:08.217Z,80.378
2023-03-13T02:32:08.109Z,80.219
2023-03-13T02:34:07.490Z,80.309
2023-03-13T02:35:08.248Z,80.202
2023-03-13T02:36:08.016Z,80.162
2023-03-13T02:37:07.560Z,80.007
2023-03-13T02:38:08.120Z,80.130
2023-03-13T02:39:07.672Z,80.076
2023-03-13T02:40:08.201Z,80.158
2023-03-13T02:41:07.914Z,80.011
2023-03-13T02:42:07.435Z,80.110
2023-03-13T02:43:08.104Z,80.089
2023-03-13T02:44:07.852Z,80.175
2023-03-13T02:45:07.483Z,80.151
2023-03-13T02:46:07.970Z,80.299
2023-03-13T02:47:08.062Z,80.252
2023-03-13T02:49:08.238Z,80.175
2023-03-13T02:50:07.830Z,80.063
2023-03-13T02:51:07.336Z,79.973
2023-03-13T02:52:08.119Z,80.069
2023-03-13T02:53:07.682Z,79.828
2023-03-13T02:54:08.229Z,80.149
2023-03-13T02:55:07.864Z,80.082
2023-03-13T02:56:07.514Z,80.080
2023-03-13T02:57:08.003Z,80.080
2023-03-13T02:58:07.613Z,80.023
2023-03-13T02:59:09.842Z,79.775
2023-03-13T03:00:07.424Z,80.028
2023-03-13T03:01:08.228Z,80.063
2023-03-13T03:02:07.800Z,80.101
2023-03-13T03:03:07.420Z,79.878
2023-03-13T03:04:08.179Z,80.145
2023-03-13T03:05:08.086Z,80.391
2023-03-13T03:06:07.776Z,80.305
2023-03-13T03:07:07.508Z,80.301
2023-03-13T03:08:08.141Z,80.204
2023-03-13T03:09:07.728Z,80.337
2023-03-13T03:10:07.363Z,80.316
2023-03-13T03:11:07.919Z,80.158
2023-03-13T03:12:07.476Z,80.084
2023-03-13T03:13:07.974Z,80.154
2023-03-13T03:14:07.501Z,80.292
2023-03-13T03:15:08.074Z,80.151
2023-03-13T03:16:07.721Z,80.160
2023-03-13T03:17:07.511Z,80.168
2023-03-13T03:18:08.038Z,80.257
2023-03-13T03:19:07.548Z,80.431
2023-03-13T03:20:08.040Z,80.299
2023-03-13T03:21:07.482Z,80.276
2023-03-13T03:22:07.977Z,80.385
2023-03-13T03:23:07.495Z,80.471
2023-03-13T03:24:08.025Z,80.227
2023-03-13T03:25:07.549Z,80.368
2023-03-13T03:26:08.248Z,80.469
2023-03-13T03:27:07.730Z,80.431
2023-03-13T03:28:08.253Z,80.423
2023-03-13T03:29:07.761Z,80.242
2023-03-13T03:30:08.209Z,80.215
2023-03-13T03:31:07.754Z,80.353
2023-03-13T03:32:07.518Z,80.334
2023-03-13T03:33:08.295Z,80.212
2023-03-13T03:34:07.876Z,80.336
2023-03-13T03:35:07.401Z,80.244
2023-03-13T03:36:08.147Z,80.343
2023-03-13T03:37:07.673Z,80.431
2023-03-13T03:38:08.248Z,80.469
2023-03-13T03:39:07.803Z,80.387
2023-03-13T03:40:07.473Z,80.208
2023-03-13T03:41:08.056Z,80.240
2023-03-13T03:42:07.616Z,80.130
2023-03-13T03:43:08.128Z,79.996
2023-03-13T03:44:07.661Z,79.962
2023-03-13T03:45:08.322Z,80.151
2023-03-13T03:46:08.056Z,80.244
2023-03-13T03:47:07.818Z,80.120
2023-03-13T03:48:07.371Z,80.225
2023-03-13T03:49:07.941Z,80.381
2023-03-13T03:50:07.481Z,80.259
2023-03-13T03:51:08.007Z,80.345
2023-03-13T03:52:07.606Z,80.192
2023-03-13T03:53:08.203Z,79.973
2023-03-13T03:54:07.904Z,79.910
2023-03-13T03:55:07.489Z,80.017
2023-03-13T03:56:08.217Z,79.985
2023-03-13T03:57:07.834Z,80.120
2023-03-13T03:58:07.432Z,80.009
2023-03-13T03:59:07.995Z,80.196
2023-03-13T04:00:07.632Z,80.009
2023-03-13T04:01:08.211Z,80.114
2023-03-13T04:02:07.846Z,79.962
2023-03-13T04:03:07.630Z,80.120
2023-03-13T04:04:07.552Z,80.048
2023-03-13T04:05:08.260Z,80.076
2023-03-13T04:06:07.792Z,79.971
2023-03-13T04:07:07.479Z,80.027
2023-03-13T04:08:07.928Z,80.219
2023-03-13T04:09:07.437Z,80.147
2023-03-13T04:10:07.961Z,80.229
2023-03-13T04:11:07.630Z,80.038
2023-03-13T04:12:08.115Z,80.036
2023-03-13T04:13:07.693Z,80.030
2023-03-13T04:14:08.492Z,80.152
2023-03-13T04:15:08.101Z,79.954
2023-03-13T04:16:10.473Z,80.130
2023-03-13T04:17:10.832Z,80.145
2023-03-13T04:18:11.203Z,80.324
2023-03-13T04:20:07.543Z,80.229
2023-03-13T04:21:08.184Z,80.053
2023-03-13T04:22:07.729Z,80.107
2023-03-13T04:23:08.213Z,80.143
2023-03-13T04:24:07.796Z,80.046
2023-03-13T04:25:08.312Z,80.034
2023-03-13T04:26:08.712Z,80.065
2023-03-13T04:27:07.441Z,80.028
2023-03-13T04:28:07.952Z,80.141
2023-03-13T04:29:07.547Z,79.973
2023-03-13T04:30:08.121Z,79.939
2023-03-13T04:31:07.903Z,80.023
2023-03-13T04:32:07.508Z,79.925
2023-03-13T04:33:08.424Z,79.853
2023-03-13T04:34:08.012Z,79.754
2023-03-13T04:35:07.746Z,79.899
2023-03-13T04:36:07.739Z,79.986
2023-03-13T04:37:08.312Z,79.927
2023-03-13T04:38:07.851Z,79.948
2023-03-13T04:39:07.389Z,79.853
2023-03-13T04:40:07.942Z,79.954
2023-03-13T04:41:07.561Z,79.975
2023-03-13T04:42:08.053Z,80.116
2023-03-13T04:43:07.885Z,80.192
2023-03-13T04:44:07.445Z,80.387
2023-03-13T04:45:08.096Z,80.431
2023-03-13T04:46:07.763Z,80.759
2023-03-13T04:47:07.372Z,80.910
2023-03-13T04:48:07.955Z,81.074
2023-03-13T04:49:10.418Z,80.975
2023-03-13T04:50:08.028Z,81.133
2023-03-13T04:51:07.485Z,81.379
2023-03-13T04:52:08.049Z,81.512
2023-03-13T04:53:08.929Z,81.348
2023-03-13T04:54:07.513Z,81.287
2023-03-13T04:55:08.064Z,81.200
2023-03-13T04:56:07.576Z,81.190
2023-03-13T04:57:07.883Z,80.919
2023-03-13T04:58:07.436Z,80.992
2023-03-13T04:59:08.232Z,80.940
2023-03-13T05:00:07.707Z,81.018
2023-03-13T05:01:08.384Z,81.255
2023-03-13T05:02:08.461Z,81.549
2023-03-13T05:03:08.044Z,81.474
2023-03-13T05:04:07.636Z,81.680
2023-03-13T05:05:10.591Z,81.686
2023-03-13T05:06:07.364Z,81.865
2023-03-13T05:07:07.845Z,81.951
2023-03-13T05:08:07.429Z,81.825
2023-03-13T05:09:07.950Z,82.003
2023-03-13T05:10:07.544Z,82.031
2023-03-13T05:11:08.251Z,82.107
2023-03-13T05:12:07.832Z,82.479
2023-03-13T05:13:07.356Z,82.186
2023-03-13T05:14:07.837Z,82.363
2023-03-13T05:15:07.481Z,82.397
2023-03-13T05:16:08.162Z,82.527
2023-03-13T05:17:08.141Z,82.764
2023-03-13T05:18:07.677Z,82.769
2023-03-13T05:19:08.136Z,82.998
2023-03-13T05:20:07.810Z,83.094
2023-03-13T05:21:08.277Z,83.162
2023-03-13T05:22:07.946Z,83.258
2023-03-13T05:23:07.396Z,83.126
2023-03-13T05:24:07.969Z,83.197
2023-03-13T05:25:07.524Z,83.010
2023-03-13T05:26:08.076Z,83.187
2023-03-13T05:27:08.276Z,83.139
2023-03-13T05:29:07.314Z,83.118
2023-03-13T05:30:07.894Z,83.555
2023-03-13T05:31:07.672Z,83.549
2023-03-13T05:32:07.432Z,83.679
2023-03-13T05:33:08.211Z,83.527
2023-03-13T05:34:07.990Z,83.879
2023-03-13T05:35:07.745Z,83.664
2023-03-13T05:36:07.435Z,83.868
2023-03-13T05:37:08.284Z,83.887
2023-03-13T05:38:08.176Z,83.767
2023-03-13T05:39:07.690Z,84.034
2023-03-13T05:40:08.349Z,84.295
2023-03-13T05:41:07.882Z,84.383
2023-03-13T05:42:07.432Z,84.440
2023-03-13T05:43:08.080Z,84.696
2023-03-13T05:44:07.741Z,84.530
2023-03-13T05:45:08.349Z,84.597
2023-03-13T05:46:08.065Z,84.450
2023-03-13T05:47:08.002Z,84.602
2023-03-13T05:48:07.540Z,84.883
2023-03-13T05:49:08.059Z,85.188
2023-03-13T05:50:07.610Z,85.577
2023-03-13T05:51:08.104Z,85.493
2023-03-13T05:52:07.641Z,85.667
2023-03-13T05:53:08.228Z,85.770
2023-03-13T05:54:07.766Z,85.680
2023-03-13T05:55:08.252Z,86.008
2023-03-13T05:56:07.793Z,85.911
2023-03-13T05:57:07.388Z,86.054
2023-03-13T05:58:07.899Z,86.058
2023-03-13T05:59:07.450Z,86.126
2023-03-13T06:00:07.950Z,86.342
2023-03-13T06:01:07.833Z,86.456
2023-03-13T06:02:07.339Z,86.121
2023-03-13T06:03:07.824Z,86.355
2023-03-13T06:04:07.788Z,86.393
2023-03-13T06:05:08.215Z,86.536
2023-03-13T06:06:07.794Z,86.615
2023-03-13T06:07:08.362Z,86.920
2023-03-13T06:08:07.879Z,87.246
2023-03-13T06:09:07.432Z,86.910
2023-03-13T06:10:07.946Z,86.805
2023-03-13T06:11:07.462Z,86.880
2023-03-13T06:12:08.044Z,86.969
2023-03-13T06:13:19.652Z,87.193
2023-03-13T06:14:07.870Z,87.313
2023-03-13T06:15:07.484Z,87.250
2023-03-13T06:16:08.153Z,87.389
2023-03-13T06:17:07.834Z,87.561
2023-03-13T06:18:07.394Z,87.612
2023-03-13T06:19:08.020Z,87.503
2023-03-13T06:20:07.654Z,87.547
2023-03-13T06:21:08.194Z,87.412
2023-03-13T06:22:07.859Z,87.675
2023-03-13T06:23:07.475Z,87.538
2023-03-13T06:24:07.987Z,87.566
2023-03-13T06:25:07.563Z,87.668
2023-03-13T06:26:08.096Z,87.595
2023-03-13T06:27:09.233Z,87.849
2023-03-13T06:28:07.791Z,87.744
2023-03-13T06:29:07.392Z,87.385
2023-03-13T06:30:08.019Z,87.589
2023-03-13T06:31:07.706Z,87.383
2023-03-13T06:32:07.847Z,87.477
2023-03-13T06:33:07.841Z,87.523
2023-03-13T06:34:09.964Z,87.629
2023-03-13T06:35:07.726Z,87.475
2023-03-13T06:36:13.273Z,87.317
2023-03-13T06:37:07.913Z,87.572
2023-03-13T06:38:07.465Z,87.872
2023-03-13T06:39:08.154Z,87.538
2023-03-13T06:40:07.782Z,87.614
2023-03-13T06:41:08.388Z,87.343
2023-03-13T06:42:07.924Z,87.730
2023-03-13T06:43:07.496Z,87.650
2023-03-13T06:44:08.166Z,87.889
2023-03-13T06:45:07.822Z,87.526
2023-03-13T06:46:07.433Z,87.601
2023-03-13T06:47:08.390Z,87.666
2023-03-13T06:48:08.082Z,87.692
2023-03-13T06:49:07.628Z,87.839
2023-03-13T06:50:08.069Z,87.902
2023-03-13T06:51:07.842Z,87.811
2023-03-13T06:52:07.630Z,87.734
2023-03-13T06:53:07.553Z,87.835
2023-03-13T06:54:08.285Z,87.748
2023-03-13T06:55:07.861Z,87.748
2023-03-13T06:56:07.389Z,87.620
2023-03-13T06:57:07.926Z,87.679
2023-03-13T06:58:07.447Z,87.500
2023-03-13T06:59:08.270Z,87.511
2023-03-13T07:00:07.914Z,87.740
2023-03-13T07:01:07.757Z,87.416
2023-03-13T07:02:07.465Z,87.557
2023-03-13T07:03:08.128Z,87.513
2023-03-13T07:04:07.999Z,87.374
2023-03-13T07:05:07.701Z,87.538
2023-03-13T07:06:08.205Z,87.395
2023-03-13T07:07:07.731Z,87.441
2023-03-13T07:08:07.708Z,87.473
2023-03-13T07:09:08.221Z,87.463
2023-03-13T07:10:07.757Z,87.336
2023-03-13T07:11:07.566Z,87.488
2023-03-13T07:12:08.096Z,87.509
2023-03-13T07:13:07.748Z,87.517
2023-03-13T07:14:16.786Z,87.481
2023-03-13T07:15:07.718Z,87.656
2023-03-13T07:16:08.412Z,87.797
2023-03-13T07:17:08.164Z,87.206
2023-03-13T07:18:08.011Z,87.034
2023-03-13T07:19:07.496Z,86.710
2023-03-13T07:20:08.150Z,86.962
2023-03-13T07:21:07.957Z,87.124
2023-03-13T07:22:07.496Z,86.876
2023-03-13T07:23:08.220Z,86.737
2023-03-13T07:24:07.866Z,86.485
2023-03-13T07:25:07.743Z,86.350
2023-03-13T07:26:08.290Z,86.601
2023-03-13T07:27:12.937Z,86.702
2023-03-13T07:28:07.735Z,86.628
2023-03-13T07:29:08.296Z,86.081
2023-03-13T07:30:07.976Z,85.938
2023-03-13T07:31:07.594Z,86.054
2023-03-13T07:32:08.352Z,85.939
2023-03-13T07:33:07.519Z,85.642
2023-03-13T07:34:08.084Z,85.684
2023-03-13T07:35:07.677Z,85.552
2023-03-13T07:36:08.355Z,85.461
2023-03-13T07:37:08.492Z,85.234
2023-03-13T07:38:08.234Z,85.173
2023-03-13T07:39:07.789Z,85.257
2023-03-13T07:40:07.417Z,84.833
2023-03-13T07:41:08.023Z,84.921
2023-03-13T07:42:07.513Z,85.012
2023-03-13T07:43:08.191Z,84.917
2023-03-13T07:44:07.800Z,84.990
2023-03-13T07:45:07.388Z,84.923
2023-03-13T07:46:08.105Z,84.858
2023-03-13T07:47:08.235Z,85.054
2023-03-13T07:48:08.314Z,84.997
2023-03-13T07:49:08.792Z,85.104
2023-03-13T07:50:08.284Z,84.915
2023-03-13T07:51:08.355Z,84.242
2023-03-13T07:53:16.268Z,84.167
2023-03-13T07:54:12.549Z,84.421
2023-03-13T07:55:13.228Z,84.377
2023-03-13T07:56:13.111Z,84.318
2023-03-13T07:57:12.700Z,84.164
2023-03-13T07:58:13.309Z,84.187
2023-03-13T07:59:13.371Z,83.685
2023-03-13T08:00:13.352Z,83.485
2023-03-13T08:01:12.969Z,83.261
2023-03-13T08:02:12.778Z,83.502
2023-03-13T08:03:13.005Z,83.229
2023-03-13T08:04:13.150Z,83.219
2023-03-13T08:05:12.778Z,82.825
2023-03-13T08:06:12.517Z,82.960
2023-03-13T08:07:12.991Z,82.760
2023-03-13T08:08:12.541Z,82.777
2023-03-13T08:09:13.422Z,83.019
2023-03-13T08:10:13.437Z,82.792
2023-03-13T08:11:13.143Z,82.937
2023-03-13T08:12:12.708Z,83.260
2023-03-13T08:13:13.305Z,82.809
2023-03-13T08:14:13.066Z,82.659
2023-03-13T08:15:12.741Z,82.508
2023-03-13T08:16:13.275Z,82.811
2023-03-13T08:17:13.344Z,82.743
2023-03-13T08:18:12.897Z,83.094
2023-03-13T08:19:12.393Z,82.920
2023-03-13T08:20:13.072Z,83.193
2023-03-13T08:21:12.648Z,83.101
2023-03-13T08:22:13.207Z,82.094
2023-03-13T08:23:12.792Z,82.493
2023-03-13T08:24:12.368Z,82.924
2023-03-13T08:25:13.042Z,82.184
2023-03-13T08:26:12.544Z,81.539
2023-03-13T08:27:13.163Z,82.109
2023-03-13T08:28:12.780Z,81.861
2023-03-13T08:29:13.296Z,82.048
2023-03-13T08:30:12.830Z,81.587
2023-03-13T08:31:12.601Z,81.852
2023-03-13T08:32:13.101Z,82.001
2023-03-13T08:33:12.853Z,81.531
2023-03-13T08:34:12.556Z,81.806
2023-03-13T08:35:13.229Z,81.737
2023-03-13T08:36:12.986Z,81.249
2023-03-13T08:37:12.473Z,81.339
2023-03-13T08:38:13.057Z,81.549
2023-03-13T08:39:12.601Z,81.224
2023-03-13T08:40:13.236Z,81.215
2023-03-13T08:41:12.862Z,81.394
2023-03-13T08:42:12.340Z,81.036
2023-03-13T08:43:13.026Z,80.915
2023-03-13T08:44:12.607Z,81.081
2023-03-13T08:45:13.400Z,80.791
2023-03-13T08:46:13.236Z,80.893
2023-03-13T08:47:12.821Z,81.087
2023-03-13T08:48:12.367Z,80.824
2023-03-13T08:49:13.083Z,80.751
2023-03-13T08:50:12.600Z,80.553
2023-03-13T08:51:13.248Z,81.039
2023-03-13T08:52:12.852Z,80.742
2023-03-13T08:53:12.463Z,80.469
2023-03-13T08:54:13.045Z,80.370
2023-03-13T08:55:12.643Z,80.402
2023-03-13T08:56:13.252Z,80.355
2023-03-13T08:57:12.813Z,80.234
2023-03-13T08:58:12.342Z,80.372
2023-03-13T08:59:12.977Z,80.320
2023-03-13T09:00:12.597Z,80.336
2023-03-13T09:01:13.151Z,80.715
2023-03-13T09:02:12.866Z,81.188
2023-03-13T09:03:12.552Z,80.542
2023-03-13T09:04:13.540Z,80.604
2023-03-13T09:05:13.213Z,81.264
2023-03-13T09:06:15.786Z,81.119
2023-03-13T09:07:12.325Z,80.732
2023-03-13T09:08:12.858Z,81.013
2023-03-13T09:09:12.585Z,80.898
2023-03-13T09:10:13.194Z,80.257
2023-03-13T09:11:12.769Z,80.444
2023-03-13T09:12:29.850Z,79.960
2023-03-13T09:13:12.637Z,79.700
2023-03-13T09:14:13.265Z,79.571
2023-03-13T09:15:12.919Z,79.163
2023-03-13T09:16:12.664Z,78.834
2023-03-13T09:17:13.310Z,78.667
2023-03-13T09:18:13.036Z,78.340
2023-03-13T09:19:12.936Z,78.194
2023-03-13T09:20:17.349Z,77.886
2023-03-13T09:21:12.968Z,78.087
2023-03-13T09:22:12.554Z,77.301
2023-03-13T09:23:13.182Z,77.289
2023-03-13T09:24:12.833Z,77.133
2023-03-13T09:25:12.528Z,77.558
2023-03-13T09:26:13.110Z,77.206
2023-03-13T09:27:17.665Z,77.728
2023-03-13T09:28:13.365Z,77.619
2023-03-13T09:29:12.985Z,77.331
2023-03-13T09:30:12.693Z,77.055
2023-03-13T09:31:13.453Z,76.971
2023-03-13T09:32:12.614Z,77.045
2023-03-13T09:33:13.333Z,77.190
2023-03-13T09:34:12.845Z,76.460
2023-03-13T09:35:12.628Z,77.082
2023-03-13T09:36:13.412Z,76.446
2023-03-13T09:37:13.054Z,76.443
2023-03-13T09:38:12.602Z,76.666
2023-03-13T09:39:13.163Z,76.500
2023-03-13T09:40:12.755Z,76.757
2023-03-13T09:41:18.273Z,76.349
2023-03-13T09:42:13.281Z,76.403
2023-03-13T09:43:12.932Z,76.710
2023-03-13T09:44:12.754Z,76.057
2023-03-13T09:45:12.380Z,76.784
2023-03-13T09:46:13.068Z,76.271
2023-03-13T09:47:13.123Z,76.380
2023-03-13T09:48:12.695Z,76.265
2023-03-13T09:49:13.341Z,75.582
2023-03-13T09:50:13.187Z,76.391
2023-03-13T09:51:12.972Z,76.326
2023-03-13T09:52:12.554Z,76.259
2023-03-13T09:53:13.141Z,76.883
2023-03-13T09:54:12.757Z,76.773
2023-03-13T09:55:12.462Z,77.379
2023-03-13T09:56:12.976Z,77.242
2023-03-13T09:57:12.646Z,76.757
2023-03-13T09:58:13.313Z,77.200
2023-03-13T09:59:12.909Z,76.687
2023-03-13T10:00:12.632Z,76.883
2023-03-13T10:01:12.473Z,76.736
2023-03-13T10:02:13.194Z,75.874
2023-03-13T10:03:12.814Z,76.225
2023-03-13T10:04:12.692Z,76.122
2023-03-13T10:05:13.321Z,76.254
2023-03-13T10:06:12.873Z,76.231
2023-03-13T10:07:12.412Z,75.453
2023-03-13T10:08:13.029Z,75.712
2023-03-13T10:09:12.723Z,75.331
2023-03-13T10:10:13.943Z,75.882
2023-03-13T10:11:12.712Z,75.964
2023-03-13T10:12:13.294Z,75.640
2023-03-13T10:13:12.830Z,75.121
2023-03-13T10:14:12.380Z,74.793
2023-03-13T10:15:12.920Z,74.940
2023-03-13T10:16:12.638Z,75.498
2023-03-13T10:17:13.359Z,74.818
2023-03-13T10:18:13.157Z,74.894
2023-03-13T10:19:12.848Z,75.212
2023-03-13T10:20:12.519Z,75.159
2023-03-13T10:21:13.305Z,75.123
2023-03-13T10:22:12.867Z,74.142
2023-03-13T10:23:12.433Z,74.591
2023-03-13T10:24:12.505Z,74.110
2023-03-13T10:25:13.161Z,74.709
2023-03-13T10:26:12.872Z,74.909
2023-03-13T10:27:12.353Z,75.163
2023-03-13T10:28:12.877Z,74.022
2023-03-13T10:29:12.482Z,74.488
2023-03-13T10:30:13.229Z,74.943
2023-03-13T10:31:13.078Z,75.023
2023-03-13T10:32:12.795Z,74.547
2023-03-13T10:33:13.538Z,74.676
2023-03-13T10:34:13.286Z,74.968
2023-03-13T10:35:12.919Z,75.073
2023-03-13T10:36:12.825Z,75.300
2023-03-13T10:37:12.368Z,74.888
2023-03-13T10:38:13.118Z,74.701
2023-03-13T10:39:12.645Z,75.065
2023-03-13T10:40:13.327Z,75.018
2023-03-13T10:41:12.934Z,75.294
2023-03-13T10:42:12.434Z,75.140
2023-03-13T10:43:13.107Z,75.567
2023-03-13T10:44:12.828Z,75.113
2023-03-13T10:45:12.474Z,75.519
2023-03-13T10:46:13.168Z,75.048
2023-03-13T10:47:13.098Z,75.121
2023-03-13T10:48:12.659Z,74.711
2023-03-13T10:49:12.315Z,74.966
2023-03-13T10:50:12.965Z,74.833
2023-03-13T10:51:12.534Z,74.709
2023-03-13T10:52:13.205Z,75.020
2023-03-13T10:53:12.765Z,74.756
2023-03-13T10:54:12.309Z,74.766
2023-03-13T10:55:12.952Z,74.406
2023-03-13T10:56:12.554Z,74.779
2023-03-13T10:57:13.110Z,74.167
2023-03-13T10:58:12.687Z,74.215
2023-03-13T10:59:13.246Z,74.407
2023-03-13T11:00:12.925Z,74.592
2023-03-13T11:01:12.521Z,74.398
2023-03-13T11:02:13.126Z,74.632
2023-03-13T11:03:13.401Z,74.528
2023-03-13T11:04:13.413Z,73.755
2023-03-13T11:05:15.300Z,74.146
2023-03-13T11:06:12.810Z,74.430
2023-03-13T11:07:12.521Z,73.725
2023-03-13T11:08:13.106Z,73.759
2023-03-13T11:09:13.104Z,73.841
2023-03-13T11:10:12.910Z,73.114
2023-03-13T11:11:12.513Z,72.634
2023-03-13T11:12:13.172Z,71.943
2023-03-13T11:13:12.765Z,71.537
2023-03-13T11:14:12.487Z,71.464
2023-03-13T11:15:13.175Z,71.293
2023-03-13T11:16:13.253Z,71.155
2023-03-13T11:17:12.932Z,71.316
2023-03-13T11:18:12.604Z,70.974
2023-03-13T11:19:13.224Z,70.734
2023-03-13T11:20:13.026Z,69.931
2023-03-13T11:21:18.482Z,70.444
2023-03-13T11:22:12.377Z,70.446
2023-03-13T11:23:12.959Z,70.339
2023-03-13T11:24:12.449Z,70.366
2023-03-13T11:25:16.332Z,70.501
2023-03-13T11:26:12.913Z,69.687
2023-03-13T11:27:17.427Z,69.484
2023-03-13T11:28:13.377Z,69.872
2023-03-13T11:29:12.977Z,70.062
2023-03-13T11:30:12.790Z,70.238
2023-03-13T11:31:12.570Z,70.211
2023-03-13T11:32:13.477Z,69.607
2023-03-13T11:33:13.343Z,70.469
2023-03-13T11:34:13.224Z,70.167
2023-03-13T11:35:12.977Z,70.030
2023-03-13T11:36:12.688Z,69.965
2023-03-13T11:37:13.309Z,70.846
2023-03-13T11:38:13.156Z,70.919
2023-03-13T11:39:12.896Z,71.138
2023-03-13T11:40:12.529Z,70.844
2023-03-13T11:41:13.080Z,71.022
2023-03-13T11:42:13.074Z,70.877
2023-03-13T11:43:24.887Z,71.026
2023-03-13T11:45:14.476Z,71.060
2023-03-13T11:46:15.809Z,70.829
2023-03-13T11:47:15.218Z,70.989
2023-03-13T11:48:14.845Z,70.968
2023-03-13T11:49:14.428Z,71.258
2023-03-13T11:50:14.999Z,71.735
2023-03-13T11:51:14.802Z,71.655
2023-03-13T11:52:14.929Z,70.717
2023-03-13T11:54:14.923Z,70.236
2023-03-13T11:55:14.502Z,70.848
2023-03-13T11:56:15.161Z,70.944
2023-03-13T11:57:14.666Z,70.761
2023-03-13T11:58:14.545Z,70.612
2023-03-13T11:59:15.208Z,70.249
2023-03-13T12:00:15.009Z,70.244
2023-03-13T12:01:14.764Z,70.125
2023-03-13T12:02:14.578Z,69.776
2023-03-13T12:03:15.429Z,69.734
2023-03-13T12:04:15.267Z,69.958
2023-03-13T12:05:15.237Z,69.151
2023-03-13T12:06:27.807Z,68.817
2023-03-13T12:07:14.923Z,68.689
2023-03-13T12:08:14.532Z,68.260
2023-03-13T12:09:15.252Z,67.987
2023-03-13T12:10:15.060Z,67.901
2023-03-13T12:11:14.760Z,66.509
2023-03-13T12:12:14.696Z,66.829
2023-03-13T12:13:15.466Z,66.013
2023-03-13T12:14:15.353Z,65.822
2023-03-13T12:15:16.206Z,66.185
2023-03-13T12:16:15.097Z,64.739
2023-03-13T12:17:15.000Z,63.974
2023-03-13T12:18:15.104Z,63.789
2023-03-13T12:19:14.650Z,62.755
2023-03-13T12:20:15.494Z,63.553
2023-03-13T12:21:15.268Z,63.160
2023-03-13T12:22:15.114Z,63.020
2023-03-13T12:23:14.693Z,63.322
2023-03-13T12:24:15.489Z,63.942
2023-03-13T12:25:15.348Z,63.219
2023-03-13T12:26:15.394Z,63.413
2023-03-13T12:27:15.136Z,63.425
2023-03-13T12:28:14.910Z,63.965
2023-03-13T12:29:14.688Z,64.628
2023-03-13T12:30:14.484Z,64.779
2023-03-13T12:31:15.314Z,64.569
2023-03-13T12:32:15.032Z,65.294
2023-03-13T12:33:14.803Z,64.781
2023-03-13T12:34:14.557Z,64.914
2023-03-13T12:35:15.286Z,64.010